createdAt,value
2019-02-26T00:00:10.274Z,1027.37
2019-02-26T00:01:09.648Z,1027.38
2019-02-26T00:02:09.614Z,1027.39
2019-02-26T00:03:09.574Z,1027.38
2019-02-26T00:04:09.539Z,1027.35
2019-02-26T00:05:09.499Z,1027.38
2019-02-26T00:06:09.465Z,1027.33
2019-02-26T00:07:09.425Z,1027.31
2019-02-26T00:08:09.396Z,1027.29
2019-02-26T00:09:09.349Z,1027.29
2019-02-26T00:10:09.320Z,1027.28
2019-02-26T00:11:10.813Z,1027.28
2019-02-26T00:12:09.244Z,1027.30
2019-02-26T00:13:09.209Z,1027.27
2019-02-26T00:14:13.140Z,1027.30
2019-02-26T00:15:09.153Z,1027.29
2019-02-26T00:16:10.547Z,1027.33
2019-02-26T00:17:11.163Z,1027.30
2019-02-26T00:18:11.567Z,1027.28
2019-02-26T00:19:09.829Z,1027.30
2019-02-26T00:20:10.951Z,1027.26
2019-02-26T00:21:08.926Z,1027.25
2019-02-26T00:22:09.528Z,1027.26
2019-02-26T00:23:08.850Z,1027.19
2019-02-26T00:24:09.900Z,1027.20
2019-02-26T00:25:10.453Z,1027.17
2019-02-26T00:26:10.483Z,1027.13
2019-02-26T00:27:09.732Z,1027.14
2019-02-26T00:28:08.664Z,1027.11
2019-02-26T00:29:08.630Z,1027.11
2019-02-26T00:30:09.620Z,1027.15
2019-02-26T00:31:08.555Z,1027.08
2019-02-26T00:32:10.093Z,1027.12
2019-02-26T00:33:08.477Z,1027.07
2019-02-26T00:34:10.683Z,1027.07
2019-02-26T00:35:08.409Z,1027.06
2019-02-26T00:36:08.968Z,1027.06
2019-02-26T00:37:08.483Z,1027.07
2019-02-26T00:38:08.953Z,1027.04
2019-02-26T00:39:08.266Z,1027.09
2019-02-26T00:40:09.970Z,1027.09
2019-02-26T00:41:08.190Z,1027.08
2019-02-26T00:42:08.157Z,1027.02
2019-02-26T00:43:08.124Z,1027.07
2019-02-26T00:44:08.079Z,1027.05
2019-02-26T00:45:08.051Z,1027.00
2019-02-26T00:46:09.876Z,1026.95
2019-02-26T00:47:08.938Z,1026.98
2019-02-26T00:48:07.932Z,1026.97
2019-02-26T00:49:07.893Z,1026.99
2019-02-26T00:50:09.549Z,1026.97
2019-02-26T00:51:07.834Z,1026.98
2019-02-26T00:52:08.708Z,1026.94
2019-02-26T00:53:07.750Z,1026.94
2019-02-26T00:54:07.715Z,1026.91
2019-02-26T00:55:09.367Z,1026.84
2019-02-26T00:56:08.380Z,1026.83
2019-02-26T00:57:08.615Z,1026.77
2019-02-26T00:58:08.447Z,1026.78
2019-02-26T00:59:07.532Z,1026.77
2019-02-26T01:00:08.112Z,1026.76
2019-02-26T01:01:10.220Z,1026.75
2019-02-26T01:02:07.430Z,1026.75
2019-02-26T01:03:09.275Z,1026.73
2019-02-26T01:04:07.346Z,1026.71
2019-02-26T01:05:08.724Z,1026.73
2019-02-26T01:06:07.997Z,1026.67
2019-02-26T01:07:07.602Z,1026.72
2019-02-26T01:08:10.536Z,1026.70
2019-02-26T01:09:09.340Z,1026.68
2019-02-26T01:10:07.133Z,1026.70
2019-02-26T01:11:08.287Z,1026.70
2019-02-26T01:12:09.033Z,1026.68
2019-02-26T01:13:07.337Z,1026.66
2019-02-26T01:14:06.981Z,1026.62
2019-02-26T01:15:07.809Z,1026.62
2019-02-26T01:16:06.901Z,1026.57
2019-02-26T01:17:08.133Z,1026.58
2019-02-26T01:18:06.837Z,1026.57
2019-02-26T01:19:08.540Z,1026.54
2019-02-26T01:20:06.762Z,1026.51
2019-02-26T01:21:06.709Z,1026.53
2019-02-26T01:22:06.676Z,1026.47
2019-02-26T01:23:06.656Z,1026.48
2019-02-26T01:24:08.584Z,1026.47
2019-02-26T01:25:06.572Z,1026.44
2019-02-26T01:26:06.538Z,1026.45
2019-02-26T01:27:06.498Z,1026.46
2019-02-26T01:28:06.463Z,1026.48
2019-02-26T01:29:06.425Z,1026.44
2019-02-26T01:30:06.389Z,1026.47
2019-02-26T01:31:07.388Z,1026.48
2019-02-26T01:32:08.911Z,1026.46
2019-02-26T01:33:08.002Z,1026.44
2019-02-26T01:34:06.245Z,1026.45
2019-02-26T01:35:08.195Z,1026.46
2019-02-26T01:36:06.165Z,1026.50
2019-02-26T01:37:08.087Z,1026.51
2019-02-26T01:38:06.100Z,1026.55
2019-02-26T01:39:09.307Z,1026.54
2019-02-26T01:40:09.396Z,1026.54
2019-02-26T01:41:05.983Z,1026.55
2019-02-26T01:42:05.938Z,1026.52
2019-02-26T01:43:05.905Z,1026.56
2019-02-26T01:44:05.878Z,1026.53
2019-02-26T01:45:05.838Z,1026.56
2019-02-26T01:46:07.774Z,1026.58
2019-02-26T01:47:05.762Z,1026.56
2019-02-26T01:48:06.331Z,1026.63
2019-02-26T01:49:05.685Z,1026.64
2019-02-26T01:50:06.936Z,1026.67
2019-02-26T01:51:05.619Z,1026.67
2019-02-26T01:52:06.219Z,1026.65
2019-02-26T01:53:05.550Z,1026.66
2019-02-26T01:54:07.521Z,1026.62
2019-02-26T01:55:05.476Z,1026.66
2019-02-26T01:56:05.431Z,1026.65
2019-02-26T01:57:08.563Z,1026.64
2019-02-26T01:58:05.361Z,1026.62
2019-02-26T01:59:05.325Z,1026.65
2019-02-26T02:00:06.922Z,1026.70
2019-02-26T02:01:05.246Z,1026.68
2019-02-26T02:02:05.210Z,1026.66
2019-02-26T02:03:05.180Z,1026.65
2019-02-26T02:04:05.135Z,1026.61
2019-02-26T02:05:07.042Z,1026.65
2019-02-26T02:06:06.248Z,1026.67
2019-02-26T02:07:06.036Z,1026.66
2019-02-26T02:08:07.254Z,1026.69
2019-02-26T02:09:04.952Z,1026.73
2019-02-26T02:10:04.912Z,1026.72
2019-02-26T02:11:07.408Z,1026.71
2019-02-26T02:12:06.593Z,1026.74
2019-02-26T02:13:07.058Z,1026.73
2019-02-26T02:14:06.036Z,1026.77
2019-02-26T02:15:04.736Z,1026.73
2019-02-26T02:16:06.642Z,1026.70
2019-02-26T02:17:06.045Z,1026.67
2019-02-26T02:18:06.215Z,1026.68
2019-02-26T02:19:04.583Z,1026.65
2019-02-26T02:20:07.703Z,1026.64
2019-02-26T02:21:04.506Z,1026.63
2019-02-26T02:22:04.471Z,1026.59
2019-02-26T02:23:05.352Z,1026.56
2019-02-26T02:24:05.717Z,1026.56
2019-02-26T02:25:04.362Z,1026.59
2019-02-26T02:26:06.486Z,1026.56
2019-02-26T02:27:04.281Z,1026.56
2019-02-26T02:28:04.568Z,1026.56
2019-02-26T02:29:04.208Z,1026.52
2019-02-26T02:30:04.184Z,1026.51
2019-02-26T02:31:04.145Z,1026.51
2019-02-26T02:32:04.953Z,1026.51
2019-02-26T02:33:04.075Z,1026.49
2019-02-26T02:34:04.028Z,1026.46
2019-02-26T02:35:06.825Z,1026.44
2019-02-26T02:36:03.963Z,1026.42
2019-02-26T02:37:03.919Z,1026.39
2019-02-26T02:38:04.960Z,1026.41
2019-02-26T02:39:03.860Z,1026.37
2019-02-26T02:40:03.817Z,1026.33
2019-02-26T02:41:03.783Z,1026.32
2019-02-26T02:42:03.733Z,1026.29
2019-02-26T02:43:04.442Z,1026.25
2019-02-26T02:44:03.658Z,1026.21
2019-02-26T02:45:05.236Z,1026.17
2019-02-26T02:46:03.589Z,1026.14
2019-02-26T02:47:04.309Z,1026.14
2019-02-26T02:48:06.235Z,1026.14
2019-02-26T02:49:04.741Z,1026.12
2019-02-26T02:50:05.590Z,1026.12
2019-02-26T02:51:05.454Z,1026.12
2019-02-26T02:52:04.145Z,1026.11
2019-02-26T02:53:04.032Z,1026.12
2019-02-26T02:54:03.293Z,1026.13
2019-02-26T02:55:04.583Z,1026.13
2019-02-26T02:56:03.738Z,1026.12
2019-02-26T02:57:05.382Z,1026.14
2019-02-26T02:58:03.143Z,1026.12
2019-02-26T02:59:05.393Z,1026.14
2019-02-26T03:00:05.582Z,1026.14
2019-02-26T03:01:03.035Z,1026.15
2019-02-26T03:02:02.992Z,1026.12
2019-02-26T03:03:02.959Z,1026.10
2019-02-26T03:04:02.917Z,1026.13
2019-02-26T03:05:02.894Z,1026.08
2019-02-26T03:06:04.908Z,1026.07
2019-02-26T03:07:03.222Z,1026.08
2019-02-26T03:08:02.776Z,1026.10
2019-02-26T03:09:02.733Z,1026.11
2019-02-26T03:10:06.116Z,1026.08
2019-02-26T03:11:02.653Z,1026.10
2019-02-26T03:12:02.631Z,1026.10
2019-02-26T03:13:02.958Z,1026.10
2019-02-26T03:14:02.545Z,1026.07
2019-02-26T03:15:05.014Z,1026.07
2019-02-26T03:16:02.482Z,1026.00
2019-02-26T03:17:02.439Z,1025.98
2019-02-26T03:18:04.166Z,1025.95
2019-02-26T03:19:04.147Z,1025.97
2019-02-26T03:20:04.914Z,1025.95
2019-02-26T03:21:04.771Z,1025.93
2019-02-26T03:22:02.249Z,1025.96
2019-02-26T03:23:04.096Z,1025.98
2019-02-26T03:24:03.515Z,1026.02
2019-02-26T03:25:02.553Z,1026.05
2019-02-26T03:26:02.114Z,1026.08
2019-02-26T03:27:02.076Z,1026.10
2019-02-26T03:28:02.033Z,1026.10
2019-02-26T03:29:01.993Z,1026.07
2019-02-26T03:30:02.272Z,1026.09
2019-02-26T03:31:01.916Z,1026.07
2019-02-26T03:32:01.901Z,1026.08
2019-02-26T03:33:04.335Z,1026.06
2019-02-26T03:34:08.779Z,1026.00
2019-02-26T03:35:04.760Z,1026.03
2019-02-26T03:36:05.442Z,1026.01
2019-02-26T03:37:03.748Z,1025.98
2019-02-26T03:38:03.571Z,1025.96
2019-02-26T03:39:02.813Z,1025.92
2019-02-26T03:40:03.651Z,1025.92
2019-02-26T03:41:03.625Z,1025.91
2019-02-26T03:42:01.509Z,1025.89
2019-02-26T03:43:04.420Z,1025.91
2019-02-26T03:44:03.321Z,1025.89
2019-02-26T03:45:02.902Z,1025.87
2019-02-26T03:46:01.354Z,1025.88
2019-02-26T03:47:01.316Z,1025.91
2019-02-26T03:48:01.276Z,1025.88
2019-02-26T03:49:02.707Z,1025.89
2019-02-26T03:50:01.218Z,1025.83
2019-02-26T03:51:01.486Z,1025.81
2019-02-26T03:52:01.132Z,1025.80
2019-02-26T03:53:01.097Z,1025.81
2019-02-26T03:54:01.056Z,1025.79
2019-02-26T03:55:03.477Z,1025.78
2019-02-26T03:56:04.270Z,1025.77
2019-02-26T03:57:00.945Z,1025.81
2019-02-26T03:58:02.121Z,1025.82
2019-02-26T03:59:04.008Z,1025.77
2019-02-26T04:00:05.608Z,1025.79
2019-02-26T04:01:04.489Z,1025.71
2019-02-26T04:02:00.764Z,1025.69
2019-02-26T04:03:00.733Z,1025.66
2019-02-26T04:04:02.458Z,1025.67
2019-02-26T04:05:02.920Z,1025.65
2019-02-26T04:06:02.916Z,1025.63
2019-02-26T04:07:01.460Z,1025.64
2019-02-26T04:08:01.594Z,1025.62
2019-02-26T04:09:00.497Z,1025.61
2019-02-26T04:10:00.461Z,1025.59
2019-02-26T04:11:01.941Z,1025.61
2019-02-26T04:12:00.387Z,1025.57
2019-02-26T04:13:00.342Z,1025.62
2019-02-26T04:14:00.331Z,1025.62
2019-02-26T04:15:00.416Z,1025.58
2019-02-26T04:16:02.222Z,1025.55
2019-02-26T04:17:01.635Z,1025.56
2019-02-26T04:18:00.158Z,1025.52
2019-02-26T04:19:00.133Z,1025.53
2019-02-26T04:20:02.644Z,1025.51
2019-02-26T04:21:03.688Z,1025.50
2019-02-26T04:22:00.007Z,1025.53
2019-02-26T04:22:59.970Z,1025.54
2019-02-26T04:24:00.996Z,1025.58
2019-02-26T04:25:04.546Z,1025.56
2019-02-26T04:26:01.662Z,1025.57
2019-02-26T04:26:59.822Z,1025.56
2019-02-26T04:28:01.752Z,1025.57
2019-02-26T04:28:59.754Z,1025.56
2019-02-26T04:29:59.700Z,1025.62
2019-02-26T04:30:59.671Z,1025.61
2019-02-26T04:31:59.631Z,1025.63
2019-02-26T04:33:01.383Z,1025.66
2019-02-26T04:34:01.816Z,1025.62
2019-02-26T04:35:01.968Z,1025.59
2019-02-26T04:35:59.484Z,1025.56
2019-02-26T04:37:01.428Z,1025.56
2019-02-26T04:38:01.003Z,1025.54
2019-02-26T04:38:59.366Z,1025.52
2019-02-26T04:40:01.459Z,1025.51
2019-02-26T04:41:00.509Z,1025.55
2019-02-26T04:41:59.259Z,1025.58
2019-02-26T04:42:59.908Z,1025.57
2019-02-26T04:44:01.311Z,1025.57
2019-02-26T04:45:02.138Z,1025.56
2019-02-26T04:45:59.387Z,1025.55
2019-02-26T04:47:00.199Z,1025.61
2019-02-26T04:48:00.746Z,1025.62
2019-02-26T04:48:58.998Z,1025.63
2019-02-26T04:50:00.529Z,1025.65
2019-02-26T04:50:58.927Z,1025.64
2019-02-26T04:51:58.889Z,1025.67
2019-02-26T04:53:01.945Z,1025.68
2019-02-26T04:53:59.513Z,1025.74
2019-02-26T04:54:58.781Z,1025.76
2019-02-26T04:55:59.877Z,1025.76
2019-02-26T04:56:58.700Z,1025.78
2019-02-26T04:57:58.666Z,1025.80
2019-02-26T04:58:58.617Z,1025.78
2019-02-26T05:00:01.042Z,1025.80
2019-02-26T05:00:58.549Z,1025.80
2019-02-26T05:01:58.505Z,1025.83
2019-02-26T05:02:58.478Z,1025.83
2019-02-26T05:03:58.435Z,1025.83
2019-02-26T05:04:58.390Z,1025.82
2019-02-26T05:06:00.161Z,1025.85
2019-02-26T05:06:58.322Z,1025.88
2019-02-26T05:07:58.288Z,1025.88
2019-02-26T05:09:00.180Z,1025.88
2019-02-26T05:09:59.382Z,1025.86
2019-02-26T05:11:00.028Z,1025.86
2019-02-26T05:11:58.134Z,1025.85
2019-02-26T05:13:02.718Z,1025.83
2019-02-26T05:13:58.058Z,1025.84
2019-02-26T05:14:58.023Z,1025.88
2019-02-26T05:15:57.990Z,1025.88
2019-02-26T05:16:57.949Z,1025.92
2019-02-26T05:17:57.904Z,1025.93
2019-02-26T05:18:58.458Z,1025.94
2019-02-26T05:19:57.837Z,1025.96
2019-02-26T05:20:59.313Z,1025.90
2019-02-26T05:21:59.363Z,1025.89
2019-02-26T05:23:00.456Z,1025.90
2019-02-26T05:24:00.055Z,1025.90
2019-02-26T05:24:57.647Z,1025.91
2019-02-26T05:26:02.963Z,1025.86
2019-02-26T05:26:57.567Z,1025.89
2019-02-26T05:27:57.537Z,1025.89
2019-02-26T05:28:57.499Z,1025.90
2019-02-26T05:29:57.464Z,1025.92
2019-02-26T05:30:57.437Z,1025.96
2019-02-26T05:31:58.821Z,1026.01
2019-02-26T05:33:00.221Z,1026.02
2019-02-26T05:33:59.929Z,1026.04
2019-02-26T05:34:57.285Z,1026.03
2019-02-26T05:35:57.236Z,1026.05
2019-02-26T05:36:59.657Z,1026.01
2019-02-26T05:38:00.367Z,1026.02
2019-02-26T05:38:59.586Z,1026.04
2019-02-26T05:39:57.084Z,1026.01
2019-02-26T05:40:57.047Z,1026.03
2019-02-26T05:41:58.909Z,1026.00
2019-02-26T05:42:58.883Z,1026.00
2019-02-26T05:43:58.281Z,1026.01
2019-02-26T05:44:59.923Z,1026.05
2019-02-26T05:45:58.128Z,1026.01
2019-02-26T05:46:58.716Z,1026.01
2019-02-26T05:47:58.782Z,1026.01
2019-02-26T05:48:56.747Z,1026.00
2019-02-26T05:49:56.707Z,1026.00
2019-02-26T05:50:57.521Z,1025.99
2019-02-26T05:51:58.664Z,1025.98
2019-02-26T05:53:01.025Z,1025.98
2019-02-26T05:53:56.562Z,1026.01
2019-02-26T05:54:56.522Z,1026.01
2019-02-26T05:55:56.480Z,1026.05
2019-02-26T05:56:56.446Z,1026.04
2019-02-26T05:57:56.404Z,1026.01
2019-02-26T05:58:56.376Z,1026.04
2019-02-26T05:59:56.337Z,1026.04
2019-02-26T06:00:56.298Z,1026.07
2019-02-26T06:01:58.425Z,1026.09
2019-02-26T06:02:56.211Z,1026.11
2019-02-26T06:03:56.184Z,1026.09
2019-02-26T06:04:56.149Z,1026.05
2019-02-26T06:05:58.281Z,1026.08
2019-02-26T06:06:57.199Z,1026.06
2019-02-26T06:07:56.031Z,1026.08
2019-02-26T06:08:57.983Z,1026.05
2019-02-26T06:09:57.235Z,1026.07
2019-02-26T06:10:55.929Z,1026.02
2019-02-26T06:11:55.872Z,1026.07
2019-02-26T06:12:55.837Z,1026.05
2019-02-26T06:13:58.339Z,1026.05
2019-02-26T06:15:00.305Z,1026.04
2019-02-26T06:15:58.552Z,1026.06
2019-02-26T06:16:55.902Z,1026.11
2019-02-26T06:17:55.959Z,1026.08
2019-02-26T06:18:55.616Z,1026.12
2019-02-26T06:19:57.237Z,1026.10
2019-02-26T06:20:56.710Z,1026.08
2019-02-26T06:21:56.621Z,1026.12
2019-02-26T06:22:55.463Z,1026.09
2019-02-26T06:23:55.421Z,1026.07
2019-02-26T06:24:59.562Z,1026.11
2019-02-26T06:25:57.777Z,1026.14
2019-02-26T06:26:55.324Z,1026.13
2019-02-26T06:27:55.277Z,1026.13
2019-02-26T06:28:55.237Z,1026.19
2019-02-26T06:29:57.491Z,1026.16
2019-02-26T06:30:55.237Z,1026.22
2019-02-26T06:31:55.122Z,1026.26
2019-02-26T06:32:59.560Z,1026.28
2019-02-26T06:33:55.042Z,1026.30
2019-02-26T06:34:55.021Z,1026.33
2019-02-26T06:35:57.044Z,1026.34
2019-02-26T06:36:54.934Z,1026.29
2019-02-26T06:37:54.887Z,1026.29
2019-02-26T06:38:56.469Z,1026.28
2019-02-26T06:39:57.293Z,1026.27
2019-02-26T06:40:54.778Z,1026.26
2019-02-26T06:41:54.743Z,1026.24
2019-02-26T06:42:54.697Z,1026.30
2019-02-26T06:43:55.121Z,1026.33
2019-02-26T06:44:54.627Z,1026.37
2019-02-26T06:45:54.584Z,1026.38
2019-02-26T06:46:54.555Z,1026.36
2019-02-26T06:47:56.310Z,1026.41
2019-02-26T06:48:54.480Z,1026.42
2019-02-26T06:49:54.442Z,1026.42
2019-02-26T06:50:55.643Z,1026.44
2019-02-26T06:51:54.357Z,1026.42
2019-02-26T06:52:54.327Z,1026.43
2019-02-26T06:53:56.507Z,1026.43
2019-02-26T06:54:57.529Z,1026.42
2019-02-26T06:55:54.218Z,1026.43
2019-02-26T06:56:54.181Z,1026.41
2019-02-26T06:57:55.204Z,1026.43
2019-02-26T06:58:54.094Z,1026.44
2019-02-26T06:59:57.971Z,1026.43
2019-02-26T07:00:55.484Z,1026.42
2019-02-26T07:01:56.035Z,1026.40
2019-02-26T07:02:53.954Z,1026.44
2019-02-26T07:03:56.115Z,1026.43
2019-02-26T07:04:53.873Z,1026.39
2019-02-26T07:05:53.840Z,1026.39
2019-02-26T07:06:55.368Z,1026.38
2019-02-26T07:07:55.057Z,1026.35
2019-02-26T07:08:53.723Z,1026.31
2019-02-26T07:09:57.436Z,1026.30
2019-02-26T07:10:53.638Z,1026.31
2019-02-26T07:11:53.606Z,1026.31
2019-02-26T07:12:53.559Z,1026.35
2019-02-26T07:13:53.892Z,1026.33
2019-02-26T07:14:55.357Z,1026.34
2019-02-26T07:15:53.454Z,1026.38
2019-02-26T07:16:53.424Z,1026.35
2019-02-26T07:17:53.386Z,1026.34
2019-02-26T07:18:53.344Z,1026.40
2019-02-26T07:19:55.456Z,1026.40
2019-02-26T07:20:55.955Z,1026.41
2019-02-26T07:21:53.231Z,1026.39
2019-02-26T07:22:53.196Z,1026.38
2019-02-26T07:23:54.589Z,1026.37
2019-02-26T07:24:53.975Z,1026.38
2019-02-26T07:25:53.086Z,1026.37
2019-02-26T07:26:53.045Z,1026.33
2019-02-26T07:27:53.600Z,1026.34
2019-02-26T07:28:52.975Z,1026.35
2019-02-26T07:29:52.929Z,1026.35
2019-02-26T07:30:52.891Z,1026.37
2019-02-26T07:31:54.196Z,1026.39
2019-02-26T07:32:52.811Z,1026.39
2019-02-26T07:33:53.396Z,1026.40
2019-02-26T07:34:52.750Z,1026.39
2019-02-26T07:35:54.397Z,1026.37
2019-02-26T07:36:52.662Z,1026.40
2019-02-26T07:37:54.465Z,1026.42
2019-02-26T07:38:54.660Z,1026.40
2019-02-26T07:39:52.560Z,1026.42
2019-02-26T07:40:54.187Z,1026.41
2019-02-26T07:41:54.323Z,1026.38
2019-02-26T07:42:52.446Z,1026.40
2019-02-26T07:43:54.569Z,1026.41
2019-02-26T07:44:52.376Z,1026.42
2019-02-26T07:45:52.330Z,1026.39
2019-02-26T07:46:52.302Z,1026.39
2019-02-26T07:47:54.067Z,1026.40
2019-02-26T07:48:53.992Z,1026.41
2019-02-26T07:49:52.195Z,1026.41
2019-02-26T07:50:52.148Z,1026.42
2019-02-26T07:51:52.116Z,1026.44
2019-02-26T07:52:52.655Z,1026.44
2019-02-26T07:53:54.287Z,1026.43
2019-02-26T07:54:52.010Z,1026.45
2019-02-26T07:55:51.961Z,1026.43
2019-02-26T07:56:52.498Z,1026.42
2019-02-26T07:57:53.186Z,1026.43
2019-02-26T07:58:51.848Z,1026.43
2019-02-26T07:59:51.810Z,1026.42
2019-02-26T08:00:52.331Z,1026.42
2019-02-26T08:01:51.747Z,1026.41
2019-02-26T08:02:53.989Z,1026.38
2019-02-26T08:03:53.250Z,1026.41
2019-02-26T08:04:51.626Z,1026.44
2019-02-26T08:05:51.588Z,1026.39
2019-02-26T08:06:52.411Z,1026.38
2019-02-26T08:07:53.886Z,1026.35
2019-02-26T08:08:51.479Z,1026.33
2019-02-26T08:09:51.455Z,1026.33
2019-02-26T08:10:53.146Z,1026.32
2019-02-26T08:11:51.372Z,1026.29
2019-02-26T08:12:51.343Z,1026.32
2019-02-26T08:13:51.717Z,1026.30
2019-02-26T08:14:51.266Z,1026.32
2019-02-26T08:15:52.736Z,1026.31
2019-02-26T08:16:53.665Z,1026.28
2019-02-26T08:17:55.406Z,1026.28
2019-02-26T08:18:52.172Z,1026.30
2019-02-26T08:19:51.083Z,1026.30
2019-02-26T08:20:52.736Z,1026.29
2019-02-26T08:21:53.201Z,1026.26
2019-02-26T08:22:51.643Z,1026.31
2019-02-26T08:23:52.725Z,1026.25
2019-02-26T08:24:52.713Z,1026.25
2019-02-26T08:25:52.375Z,1026.25
2019-02-26T08:26:50.833Z,1026.28
2019-02-26T08:27:52.172Z,1026.29
2019-02-26T08:28:50.752Z,1026.32
2019-02-26T08:29:51.718Z,1026.33
2019-02-26T08:30:52.881Z,1026.39
2019-02-26T08:31:52.118Z,1026.37
2019-02-26T08:32:53.478Z,1026.39
2019-02-26T08:33:51.767Z,1026.42
2019-02-26T08:34:50.537Z,1026.42
2019-02-26T08:35:50.500Z,1026.48
2019-02-26T08:36:50.460Z,1026.46
2019-02-26T08:37:50.433Z,1026.46
2019-02-26T08:38:52.032Z,1026.47
2019-02-26T08:39:50.349Z,1026.44
2019-02-26T08:40:50.309Z,1026.42
2019-02-26T08:41:50.283Z,1026.42
2019-02-26T08:42:50.243Z,1026.40
2019-02-26T08:43:51.601Z,1026.44
2019-02-26T08:44:51.224Z,1026.48
2019-02-26T08:45:50.139Z,1026.45
2019-02-26T08:46:50.101Z,1026.47
2019-02-26T08:47:50.061Z,1026.48
2019-02-26T08:48:50.832Z,1026.49
2019-02-26T08:49:49.986Z,1026.49
2019-02-26T08:50:49.952Z,1026.49
2019-02-26T08:51:49.924Z,1026.50
2019-02-26T08:52:52.733Z,1026.47
2019-02-26T08:53:51.734Z,1026.46
2019-02-26T08:54:49.809Z,1026.48
2019-02-26T08:55:51.544Z,1026.42
2019-02-26T08:56:49.736Z,1026.43
2019-02-26T08:57:51.976Z,1026.44
2019-02-26T08:58:49.667Z,1026.40
2019-02-26T08:59:51.843Z,1026.43
2019-02-26T09:00:49.600Z,1026.45
2019-02-26T09:01:49.552Z,1026.44
2019-02-26T09:02:53.799Z,1026.43
2019-02-26T09:03:50.700Z,1026.44
2019-02-26T09:04:49.451Z,1026.47
2019-02-26T09:05:51.124Z,1026.43
2019-02-26T09:06:50.557Z,1026.40
2019-02-26T09:07:50.544Z,1026.38
2019-02-26T09:08:49.311Z,1026.37
2019-02-26T09:09:50.042Z,1026.35
2019-02-26T09:10:49.256Z,1026.36
2019-02-26T09:11:50.278Z,1026.37
2019-02-26T09:12:51.685Z,1026.36
2019-02-26T09:13:49.131Z,1026.38
2019-02-26T09:14:49.972Z,1026.34
2019-02-26T09:15:49.061Z,1026.35
2019-02-26T09:16:51.968Z,1026.31
2019-02-26T09:17:49.000Z,1026.29
2019-02-26T09:18:48.950Z,1026.32
2019-02-26T09:19:50.880Z,1026.27
2019-02-26T09:20:48.886Z,1026.25
2019-02-26T09:21:50.536Z,1026.25
2019-02-26T09:22:52.962Z,1026.24
2019-02-26T09:23:49.917Z,1026.29
2019-02-26T09:24:49.464Z,1026.27
2019-02-26T09:25:51.491Z,1026.31
2019-02-26T09:26:49.394Z,1026.30
2019-02-26T09:27:48.638Z,1026.33
2019-02-26T09:28:50.084Z,1026.34
2019-02-26T09:29:51.297Z,1026.38
2019-02-26T09:30:48.537Z,1026.38
2019-02-26T09:31:48.501Z,1026.38
2019-02-26T09:32:48.468Z,1026.38
2019-02-26T09:33:48.442Z,1026.35
2019-02-26T09:34:48.406Z,1026.37
2019-02-26T09:35:49.851Z,1026.34
2019-02-26T09:36:50.689Z,1026.34
2019-02-26T09:37:52.067Z,1026.28
2019-02-26T09:38:49.632Z,1026.29
2019-02-26T09:39:48.237Z,1026.33
2019-02-26T09:40:50.102Z,1026.29
2019-02-26T09:41:48.167Z,1026.31
2019-02-26T09:42:51.702Z,1026.33
2019-02-26T09:43:48.180Z,1026.35
2019-02-26T09:44:50.159Z,1026.37
2019-02-26T09:45:48.772Z,1026.38
2019-02-26T09:46:48.009Z,1026.40
2019-02-26T09:47:49.669Z,1026.35
2019-02-26T09:48:47.919Z,1026.39
2019-02-26T09:49:49.525Z,1026.35
2019-02-26T09:50:48.693Z,1026.34
2019-02-26T09:51:47.813Z,1026.31
2019-02-26T09:52:50.252Z,1026.30
2019-02-26T09:53:50.255Z,1026.32
2019-02-26T09:54:48.250Z,1026.33
2019-02-26T09:55:47.685Z,1026.30
2019-02-26T09:56:47.649Z,1026.72
2019-02-26T09:57:47.619Z,1027.24
2019-02-26T09:58:48.353Z,1027.71
2019-02-26T09:59:49.183Z,1027.98
2019-02-26T10:00:48.005Z,1027.97
2019-02-26T10:01:47.488Z,1027.96
2019-02-26T10:02:49.386Z,1028.02
2019-02-26T10:03:47.431Z,1027.98
2019-02-26T10:04:49.451Z,1027.92
2019-02-26T10:05:48.191Z,1028.04
2019-02-26T10:06:47.579Z,1028.08
2019-02-26T10:07:47.308Z,1028.03
2019-02-26T10:08:49.088Z,1028.13
2019-02-26T10:09:48.421Z,1028.14
2019-02-26T10:10:47.220Z,1028.19
2019-02-26T10:11:49.171Z,1028.17
2019-02-26T10:12:47.164Z,1028.13
2019-02-26T10:13:48.978Z,1028.13
2019-02-26T10:14:47.124Z,1028.18
2019-02-26T10:15:47.094Z,1028.18
2019-02-26T10:16:49.243Z,1028.15
2019-02-26T10:17:47.044Z,1028.20
2019-02-26T10:18:47.856Z,1028.12
2019-02-26T10:19:46.994Z,1028.13
2019-02-26T10:20:47.627Z,1028.10
2019-02-26T10:21:46.955Z,1028.13
2019-02-26T10:22:46.925Z,1028.15
2019-02-26T10:23:49.268Z,1028.12
2019-02-26T10:24:46.880Z,1028.08
2019-02-26T10:25:46.849Z,1028.12
2019-02-26T10:26:46.826Z,1028.07
2019-02-26T10:27:47.900Z,1028.04
2019-02-26T10:28:51.669Z,1028.00
2019-02-26T10:29:47.627Z,1027.93
2019-02-26T10:30:46.751Z,1027.93
2019-02-26T10:31:46.728Z,1027.93
2019-02-26T10:32:47.022Z,1027.92
2019-02-26T10:33:48.939Z,1027.92
2019-02-26T10:34:46.670Z,1027.88
2019-02-26T10:35:47.974Z,1027.89
2019-02-26T10:36:49.314Z,1027.86
2019-02-26T10:37:46.617Z,1027.89
2019-02-26T10:38:46.601Z,1027.85
2019-02-26T10:39:47.969Z,1027.81
2019-02-26T10:40:53.958Z,1027.86
2019-02-26T10:41:46.733Z,1027.83
2019-02-26T10:42:46.853Z,1027.81
2019-02-26T10:43:46.507Z,1027.81
2019-02-26T10:44:46.477Z,1027.77
2019-02-26T10:45:47.604Z,1027.75
2019-02-26T10:46:46.438Z,1027.70
2019-02-26T10:47:46.961Z,1027.72
2019-02-26T10:48:48.049Z,1027.68
2019-02-26T10:49:46.822Z,1027.61
2019-02-26T10:50:49.107Z,1027.64
2019-02-26T10:51:46.345Z,1027.66
2019-02-26T10:52:46.326Z,1027.63
2019-02-26T10:53:46.307Z,1027.56
2019-02-26T10:54:46.610Z,1027.55
2019-02-26T10:55:46.278Z,1027.53
2019-02-26T10:56:46.261Z,1027.52
2019-02-26T10:57:47.782Z,1027.45
2019-02-26T10:58:46.222Z,1027.42
2019-02-26T10:59:46.208Z,1027.43
2019-02-26T11:00:46.177Z,1027.43
2019-02-26T11:01:46.768Z,1027.43
2019-02-26T11:02:48.031Z,1027.46
2019-02-26T11:03:47.223Z,1027.50
2019-02-26T11:04:49.268Z,1027.45
2019-02-26T11:05:48.749Z,1027.42
2019-02-26T11:06:46.933Z,1027.45
2019-02-26T11:07:46.075Z,1027.39
2019-02-26T11:08:47.516Z,1027.32
2019-02-26T11:09:49.404Z,1027.25
2019-02-26T11:10:47.864Z,1027.24
2019-02-26T11:11:46.003Z,1027.17
2019-02-26T11:12:48.011Z,1027.16
2019-02-26T11:13:51.003Z,1027.22
2019-02-26T11:14:45.951Z,1027.26
2019-02-26T11:15:48.226Z,1027.15
2019-02-26T11:16:45.912Z,1027.11
2019-02-26T11:17:47.851Z,1027.02
2019-02-26T11:18:47.679Z,1027.06
2019-02-26T11:19:45.866Z,1027.09
2019-02-26T11:20:47.856Z,1027.10
2019-02-26T11:21:47.439Z,1027.03
2019-02-26T11:22:47.198Z,1026.98
2019-02-26T11:23:46.466Z,1027.13
2019-02-26T11:24:45.783Z,1027.05
2019-02-26T11:25:45.769Z,1027.06
2019-02-26T11:26:45.765Z,1027.05
2019-02-26T11:27:46.755Z,1026.98
2019-02-26T11:28:47.770Z,1027.01
2019-02-26T11:29:45.723Z,1027.05
2019-02-26T11:30:46.637Z,1026.90
2019-02-26T11:31:47.713Z,1026.89
2019-02-26T11:32:45.649Z,1026.94
2019-02-26T11:33:45.638Z,1027.01
2019-02-26T11:34:45.628Z,1026.98
2019-02-26T11:35:47.117Z,1026.91
2019-02-26T11:36:45.588Z,1026.97
2019-02-26T11:38:47.068Z,1026.85
2019-02-26T11:39:45.542Z,1026.85
2019-02-26T11:40:45.523Z,1026.66
2019-02-26T11:41:45.507Z,1026.70
2019-02-26T11:42:46.730Z,1026.71
2019-02-26T11:43:45.483Z,1026.76
2019-02-26T11:44:45.450Z,1026.83
2019-02-26T11:45:45.442Z,1026.64
2019-02-26T11:46:48.172Z,1026.62
2019-02-26T11:47:45.413Z,1026.63
2019-02-26T11:48:47.468Z,1026.64
2019-02-26T11:49:46.692Z,1026.75
2019-02-26T11:50:45.360Z,1026.71
2019-02-26T11:51:45.348Z,1026.71
2019-02-26T11:52:45.325Z,1026.73
2019-02-26T11:53:45.780Z,1026.67
2019-02-26T11:54:45.293Z,1026.61
2019-02-26T11:55:45.273Z,1026.56
2019-02-26T11:56:47.149Z,1026.38
2019-02-26T11:57:47.370Z,1026.30
2019-02-26T11:58:45.230Z,1026.22
2019-02-26T11:59:45.205Z,1026.42
2019-02-26T12:00:47.627Z,1026.48
2019-02-26T12:01:45.179Z,1026.60
2019-02-26T12:02:45.169Z,1026.58
2019-02-26T12:03:45.140Z,1026.39
2019-02-26T12:04:45.126Z,1026.19
2019-02-26T12:05:45.116Z,1026.20